Terminal Aerodrome Forecast
Issued by NWS Albuquerque, NM

Home | Current Version | Previous Version | Text Only | Print | Product List | Glossary On
Versions: 1 2 3 4 5 6 7 8 9 10 11 12 13
000
FTUS45 KABQ 261740
TAFABQ
TAF
KABQ 261740Z 2618/2718 23015G23KT P6SM FEW110
     FM262000 25017G26KT P6SM SCT110
     FM270200 28012KT P6SM SCT100 SCT150
     FM270500 30006KT P6SM SCT090 SCT140=

USA.gov is the U.S. government's official web portal to all federal, state and local government web resources and services.